createdAt,value
2023-01-23T00:00:58.386Z,100900.28
2023-01-23T00:07:00.270Z,100911.72
2023-01-23T00:13:02.190Z,100909.72
2023-01-23T00:19:04.124Z,100913.84
2023-01-23T00:25:07.494Z,100906.84
2023-01-23T00:31:16.217Z,100906.88
2023-01-23T00:37:18.173Z,100915.53
2023-01-23T00:43:21.370Z,100916.63
2023-01-23T00:49:24.733Z,100921.78
2023-01-23T00:55:26.778Z,100930.25
2023-01-23T01:01:31.366Z,100929.81
2023-01-23T01:07:33.497Z,100935.84
2023-01-23T01:13:35.900Z,100937.47
2023-01-23T01:19:37.891Z,100951.59
2023-01-23T01:25:40.624Z,100947.84
2023-01-23T01:31:42.612Z,100945.34
2023-01-23T01:37:44.581Z,100950.44
2023-01-23T01:43:47.061Z,100955.13
2023-01-23T01:49:52.916Z,100948.13
2023-01-23T01:55:56.584Z,100949.63
2023-01-23T02:02:14.529Z,100967.59
2023-01-23T02:08:35.696Z,100971.72
2023-01-23T02:14:37.663Z,100972.25
2023-01-23T02:20:39.794Z,100971.56
2023-01-23T02:26:44.832Z,100971.44
2023-01-23T02:32:47.297Z,100973.25
2023-01-23T02:39:14.325Z,100980.09
2023-01-23T02:45:16.343Z,100980.19
2023-01-23T02:51:18.724Z,100978.03
2023-01-23T02:57:20.684Z,100998.09
2023-01-23T03:03:23.046Z,100995.53
2023-01-23T03:09:25.131Z,101007.00
2023-01-23T03:15:27.086Z,101006.69
2023-01-23T03:21:29.037Z,101005.47
2023-01-23T03:27:32.150Z,101008.16
2023-01-23T03:33:34.029Z,101015.75
2023-01-23T03:39:55.065Z,101011.19
2023-01-23T03:45:57.013Z,101021.66
2023-01-23T03:51:59.607Z,101026.84
2023-01-23T03:58:01.537Z,101034.47
2023-01-23T04:04:03.928Z,101028.03
2023-01-23T04:10:06.118Z,101035.34
2023-01-23T04:16:08.594Z,101042.53
2023-01-23T04:22:10.707Z,101038.00
2023-01-23T04:28:13.114Z,101034.78
2023-01-23T04:34:15.003Z,101028.97
2023-01-23T04:40:17.416Z,101033.88
2023-01-23T04:46:19.612Z,101041.13
2023-01-23T04:52:21.490Z,101037.56
2023-01-23T04:58:23.425Z,101036.47
2023-01-23T05:04:25.324Z,101037.38
2023-01-23T05:10:27.596Z,101036.16
2023-01-23T05:16:29.517Z,101033.22
2023-01-23T05:22:31.522Z,101039.25
2023-01-23T05:28:33.428Z,101040.47
2023-01-23T05:34:35.555Z,101032.16
2023-01-23T05:40:37.506Z,101049.81
2023-01-23T05:46:39.492Z,101044.00
2023-01-23T05:52:41.499Z,101055.88
2023-01-23T05:58:43.403Z,101051.16
2023-01-23T06:04:48.859Z,101044.66
2023-01-23T06:10:51.390Z,101053.84
2023-01-23T06:16:53.315Z,101063.13
2023-01-23T06:22:55.227Z,101080.41
2023-01-23T06:28:57.145Z,101100.47
2023-01-23T06:34:59.026Z,101104.78
2023-01-23T06:41:01.016Z,101108.00
2023-01-23T06:47:03.559Z,101114.72
2023-01-23T06:53:05.593Z,101126.78
2023-01-23T06:59:07.618Z,101130.56
2023-01-23T07:05:09.784Z,101134.44
2023-01-23T07:11:12.025Z,101141.44
2023-01-23T07:17:13.895Z,101150.31
2023-01-23T07:23:16.569Z,101153.38
2023-01-23T07:29:18.440Z,101156.50
2023-01-23T07:35:21.155Z,101156.97
2023-01-23T07:41:23.138Z,101162.00
2023-01-23T07:47:25.070Z,101161.94
2023-01-23T07:53:27.022Z,101170.25
2023-01-23T07:59:28.940Z,101184.28
2023-01-23T08:05:30.868Z,101179.34
2023-01-23T08:11:34.383Z,101180.50
2023-01-23T08:17:36.907Z,101185.00
2023-01-23T08:23:41.013Z,101197.09
2023-01-23T08:29:43.042Z,101205.22
2023-01-23T08:35:53.216Z,101216.47
2023-01-23T08:41:55.115Z,101219.88
2023-01-23T08:47:57.733Z,101224.59
2023-01-23T08:53:59.666Z,101220.56
2023-01-23T09:00:01.655Z,101219.53
2023-01-23T09:06:03.711Z,101228.63
2023-01-23T09:12:05.709Z,101241.16
2023-01-23T09:18:07.667Z,101250.56
2023-01-23T09:24:09.663Z,101249.94
2023-01-23T09:30:12.314Z,101255.59
2023-01-23T09:36:14.233Z,101259.41
2023-01-23T09:42:32.071Z,101275.53
2023-01-23T09:48:45.272Z,101263.13
2023-01-23T09:54:49.915Z,101268.44
2023-01-23T10:00:52.226Z,101268.72
2023-01-23T10:07:07.618Z,101267.81
2023-01-23T10:13:16.711Z,101257.81
2023-01-23T10:19:57.629Z,101252.59
2023-01-23T10:26:02.868Z,101251.09
2023-01-23T10:32:23.600Z,101258.50
2023-01-23T10:38:31.220Z,101241.63
2023-01-23T10:44:33.100Z,101248.09
2023-01-23T10:50:39.496Z,101261.97
2023-01-23T10:57:29.962Z,101255.59
2023-01-23T11:03:35.634Z,101253.22
2023-01-23T11:10:20.984Z,101251.97
2023-01-23T11:16:24.092Z,101253.75
2023-01-23T11:22:41.764Z,101257.31
2023-01-23T11:28:49.037Z,101258.78
2023-01-23T11:35:03.127Z,101249.34
2023-01-23T11:41:05.671Z,101247.06
2023-01-23T11:47:36.096Z,101248.16
2023-01-23T11:54:35.356Z,101250.06
2023-01-23T12:01:11.793Z,101249.38
2023-01-23T12:07:17.950Z,101245.59
2023-01-23T12:14:02.356Z,101232.13
2023-01-23T12:20:04.277Z,101230.16
2023-01-23T12:26:24.547Z,101224.56
2023-01-23T12:33:01.683Z,101220.63
2023-01-23T12:39:32.235Z,101213.13
2023-01-23T12:45:34.410Z,101212.59
2023-01-23T12:51:44.282Z,101209.72
2023-01-23T12:58:00.135Z,101201.66
2023-01-23T13:04:19.620Z,101209.22
2023-01-23T13:11:04.693Z,101215.03
2023-01-23T13:17:31.783Z,101218.22
2023-01-23T13:23:38.655Z,101217.78
2023-01-23T13:29:50.347Z,101220.94
2023-01-23T13:35:54.931Z,101218.94
2023-01-23T13:42:15.065Z,101219.56
2023-01-23T14:22:31.241Z,101246.13
2023-01-23T14:28:33.198Z,101258.06
2023-01-23T14:34:40.124Z,101258.50
2023-01-23T14:40:50.732Z,101250.56
2023-01-23T14:46:57.789Z,101258.19
2023-01-23T14:53:15.262Z,101270.09
2023-01-23T14:59:29.860Z,101281.22
2023-01-23T15:05:32.857Z,101294.06
2023-01-23T15:11:35.518Z,101290.91
2023-01-23T15:17:37.518Z,101290.09
2023-01-23T15:23:41.088Z,101291.06
2023-01-23T15:29:44.824Z,101301.19
2023-01-23T15:35:47.247Z,101290.50
2023-01-23T15:41:55.060Z,101291.75
2023-01-23T15:47:57.071Z,101292.97
2023-01-23T15:53:59.033Z,101295.41
2023-01-23T16:00:01.285Z,101292.97
2023-01-23T16:06:04.983Z,101292.31
2023-01-23T16:12:17.668Z,101295.72
2023-01-23T16:18:19.685Z,101293.34
2023-01-23T16:24:24.074Z,101298.47
2023-01-23T16:30:27.701Z,101302.41
2023-01-23T16:36:30.334Z,101291.66
2023-01-23T16:42:32.848Z,101292.78
2023-01-23T16:48:34.737Z,101292.69
2023-01-23T16:54:36.673Z,101306.38
2023-01-23T17:00:40.649Z,101303.91
2023-01-23T17:06:42.842Z,101312.75
2023-01-23T17:12:45.181Z,101313.06
2023-01-23T17:18:47.166Z,101304.25
2023-01-23T17:24:49.502Z,101302.38
2023-01-23T17:30:54.868Z,101305.03
2023-01-23T17:36:57.167Z,101309.19
2023-01-23T17:42:59.259Z,101310.47
2023-01-23T17:49:01.480Z,101311.47
2023-01-23T17:55:03.613Z,101321.94
2023-01-23T18:01:22.017Z,101318.16
2023-01-23T18:07:24.240Z,101315.78
2023-01-23T18:13:47.083Z,101320.63
2023-01-23T18:19:51.619Z,101326.00
2023-01-23T18:26:38.586Z,101330.56
2023-01-23T18:33:02.329Z,101330.75
2023-01-23T18:39:23.503Z,101337.44
2023-01-23T18:45:27.731Z,101326.59
2023-01-23T18:51:40.095Z,101328.66
2023-01-23T18:58:15.687Z,101326.09
2023-01-23T19:04:18.543Z,101327.91
2023-01-23T19:10:28.032Z,101327.06
2023-01-23T19:16:37.251Z,101320.81
2023-01-23T19:23:16.329Z,101321.75
2023-01-23T19:29:22.300Z,101329.03
2023-01-23T19:35:24.768Z,101325.47
2023-01-23T19:41:49.055Z,101336.00
2023-01-23T19:47:53.253Z,101336.41
2023-01-23T19:53:55.598Z,101338.09
2023-01-23T19:59:57.470Z,101344.78
2023-01-23T20:05:59.701Z,101358.00
2023-01-23T20:12:01.610Z,101360.78
2023-01-23T20:18:03.576Z,101373.44
2023-01-23T20:24:07.369Z,101380.38
2023-01-23T20:30:16.227Z,101377.97
2023-01-23T20:36:18.117Z,101373.16
2023-01-23T20:42:20.362Z,101373.72
2023-01-23T20:48:22.653Z,101370.97
2023-01-23T20:54:24.584Z,101374.19
2023-01-23T21:00:26.483Z,101369.41
2023-01-23T21:06:28.374Z,101373.91
2023-01-23T21:12:30.323Z,101387.72
2023-01-23T21:18:37.118Z,101383.16
2023-01-23T21:24:39.123Z,101380.34
2023-01-23T21:30:41.387Z,101370.69
2023-01-23T21:36:44.028Z,101374.41
2023-01-23T21:42:45.945Z,101373.34
2023-01-23T21:48:47.894Z,101374.13
2023-01-23T21:54:49.779Z,101383.81
2023-01-23T22:01:26.528Z,101385.41
2023-01-23T22:07:28.511Z,101385.84
2023-01-23T22:13:30.430Z,101378.75
2023-01-23T22:19:32.322Z,101376.22
2023-01-23T22:25:34.261Z,101382.16
2023-01-23T22:31:36.401Z,101382.75
2023-01-23T22:37:40.073Z,101392.56
2023-01-23T22:43:42.082Z,101385.09
2023-01-23T22:49:44.087Z,101373.00
2023-01-23T22:55:45.955Z,101385.75
2023-01-23T23:01:47.832Z,101380.00
2023-01-23T23:07:49.699Z,101382.94
2023-01-23T23:13:52.698Z,101385.97
2023-01-23T23:19:54.589Z,101386.31
2023-01-23T23:25:57.505Z,101382.16
2023-01-23T23:31:59.530Z,101379.81
2023-01-23T23:38:01.614Z,101379.41
2023-01-23T23:44:03.744Z,101379.81
2023-01-23T23:50:06.328Z,101371.84
2023-01-23T23:56:08.749Z,101381.81
